Time;durP1;ratioP1;P1;durP2;ratioP2;P2;SDS_P1;SDS_P2;PMS_P1;PMS_P2;Temp;Humidity;BMP_temperature;BMP_pressure;BME280_temperature;BME280_humidity;BME280_pressure;Samples;Min_cycle;Max_cycle;Signal;HPM_P1;HPM_P2
2021/09/13 00:02:23;;;;;;;6.50;4.70;;;;;;;13.80;100.00;96777.28;5034385;28;20045;-67
2021/09/13 00:04:48;;;;;;;6.97;4.88;;;;;;;13.87;100.00;96771.03;5033595;28;20052;-66
2021/09/13 00:07:14;;;;;;;6.72;5.07;;;;;;;14.00;100.00;96779.72;5039063;28;20128;-66
2021/09/13 00:09:39;;;;;;;13.40;4.68;;;;;;;13.98;100.00;96774.59;5054354;28;20048;-66
2021/09/13 00:12:05;;;;;;;9.52;5.25;;;;;;;13.83;100.00;96775.72;5037362;28;20045;-64
2021/09/13 00:14:31;;;;;;;10.93;4.47;;;;;;;13.74;100.00;96765.06;5023782;28;20079;-66
2021/09/13 00:16:56;;;;;;;6.28;4.70;;;;;;;13.80;100.00;96769.03;5035661;28;20053;-67
2021/09/13 00:19:23;;;;;;;6.43;4.32;;;;;;;13.87;100.00;96780.06;5028261;28;20946;-68
2021/09/13 00:21:48;;;;;;;7.70;4.40;;;;;;;13.89;100.00;96779.69;5027196;28;20141;-68
2021/09/13 00:24:14;;;;;;;8.95;4.90;;;;;;;13.82;100.00;96772.19;5002194;28;20130;-66
2021/09/13 00:26:39;;;;;;;7.68;5.28;;;;;;;13.76;100.00;96777.25;5030012;28;20117;-66
2021/09/13 00:29:05;;;;;;;9.88;4.72;;;;;;;13.86;100.00;96774.94;5014230;28;20047;-66
2021/09/13 00:31:30;;;;;;;8.02;4.68;;;;;;;14.00;100.00;96782.50;5029617;28;20103;-67
2021/09/13 00:33:55;;;;;;;7.78;4.95;;;;;;;14.00;100.00;96765.97;5037051;28;20132;-67
2021/09/13 00:36:21;;;;;;;8.63;4.47;;;;;;;14.08;100.00;96779.38;5026951;28;20057;-66
2021/09/13 00:38:46;;;;;;;7.38;4.35;;;;;;;14.15;100.00;96771.16;5040082;28;20095;-67
2021/09/13 00:41:11;;;;;;;6.32;4.00;;;;;;;14.23;100.00;96766.44;5024548;28;20063;-67
2021/09/13 00:43:37;;;;;;;8.52;4.28;;;;;;;14.30;100.00;96773.94;5032855;28;20100;-66
2021/09/13 00:46:02;;;;;;;7.40;4.28;;;;;;;14.37;100.00;96775.91;5023025;28;20037;-67
2021/09/13 00:48:28;;;;;;;7.97;4.60;;;;;;;14.34;100.00;96774.72;5021078;28;20049;-67
2021/09/13 00:50:53;;;;;;;9.15;4.60;;;;;;;14.33;100.00;96770.38;5021222;28;20047;-67
2021/09/13 00:53:19;;;;;;;6.45;4.55;;;;;;;14.22;100.00;96766.81;5014828;28;20060;-67
2021/09/13 00:55:44;;;;;;;6.55;4.75;;;;;;;14.20;100.00;96771.94;5027232;28;20049;-67
2021/09/13 00:58:10;;;;;;;9.43;5.22;;;;;;;14.13;100.00;96768.00;5027665;28;20068;-68
2021/09/13 01:00:36;;;;;;;7.80;4.88;;;;;;;14.15;100.00;96771.16;5032828;28;20390;-67
2021/09/13 01:03:02;;;;;;;7.10;4.90;;;;;;;14.15;100.00;96764.81;5020404;28;20112;-67
2021/09/13 01:05:27;;;;;;;9.02;5.28;;;;;;;14.17;100.00;96773.50;5024500;28;20920;-67
2021/09/13 01:07:54;;;;;;;7.20;4.68;;;;;;;14.11;100.00;96767.56;5029103;28;20487;-67
2021/09/13 01:10:20;;;;;;;7.07;4.68;;;;;;;14.10;100.00;96770.72;5009801;28;20048;-66
2021/09/13 01:12:46;;;;;;;9.48;4.78;;;;;;;14.07;100.00;96771.50;5028157;28;20041;-67
2021/09/13 01:15:11;;;;;;;6.82;5.20;;;;;;;13.97;100.00;96764.75;5015828;28;20487;-66
2021/09/13 01:17:37;;;;;;;8.63;5.05;;;;;;;14.03;100.00;96763.22;5019771;28;20401;-67
2021/09/13 01:20:03;;;;;;;8.32;4.90;;;;;;;14.05;100.00;96758.13;5025180;28;20709;-65
2021/09/13 01:22:29;;;;;;;7.15;5.35;;;;;;;14.06;100.00;96754.19;5031979;28;20559;-66
2021/09/13 01:24:55;;;;;;;6.25;4.07;;;;;;;14.00;100.00;96766.75;5021481;28;20136;-66
2021/09/13 01:27:20;;;;;;;8.82;4.60;;;;;;;13.85;100.00;96762.38;5013449;28;20457;-67
2021/09/13 01:29:46;;;;;;;7.57;5.28;;;;;;;13.80;100.00;96765.50;5028643;28;20076;-68
2021/09/13 01:32:11;;;;;;;7.20;5.28;;;;;;;13.80;100.00;96758.00;5035895;28;20045;-67
2021/09/13 01:34:36;;;;;;;8.90;5.25;;;;;;;13.76;100.00;96755.25;5033228;28;20038;-66
2021/09/13 01:37:02;;;;;;;10.32;4.95;;;;;;;13.72;100.00;96756.38;5040507;28;20037;-67
2021/09/13 01:39:28;;;;;;;6.80;4.78;;;;;;;13.81;100.00;96753.28;5039663;28;20060;-66
2021/09/13 01:41:53;;;;;;;8.63;4.95;;;;;;;13.86;100.00;96758.44;5041854;28;20037;-66
2021/09/13 01:44:19;;;;;;;7.47;4.90;;;;;;;13.76;100.00;96749.75;5025603;28;20071;-66
2021/09/13 01:46:45;;;;;;;6.63;4.72;;;;;;;13.76;100.00;96754.47;5028376;28;20060;-66
2021/09/13 01:49:11;;;;;;;7.70;4.30;;;;;;;13.76;100.00;96752.50;5024416;28;20048;-67
2021/09/13 01:51:38;;;;;;;7.35;4.82;;;;;;;13.74;100.00;96754.84;5023683;28;20033;-67
2021/09/13 01:54:04;;;;;;;7.00;4.82;;;;;;;13.68;100.00;96750.88;5019433;28;20073;-66
2021/09/13 01:56:29;;;;;;;8.43;4.68;;;;;;;13.66;100.00;96744.97;5024186;28;20561;-66
2021/09/13 01:58:55;;;;;;;5.78;4.45;;;;;;;13.57;100.00;96752.78;5027591;28;20864;-66
2021/09/13 02:01:21;;;;;;;8.55;5.28;;;;;;;13.48;100.00;96755.09;5022711;28;20053;-67
2021/09/13 02:03:47;;;;;;;8.82;4.88;;;;;;;13.48;100.00;96746.84;5032368;28;20045;-66
2021/09/13 02:06:13;;;;;;;9.80;4.95;;;;;;;13.44;100.00;96748.78;5019323;28;20042;-65
2021/09/13 02:08:38;;;;;;;7.32;5.13;;;;;;;13.50;100.00;96752.75;5032052;28;20116;-68
2021/09/13 02:11:05;;;;;;;6.00;4.45;;;;;;;13.37;100.00;96761.31;5035471;28;20044;-69
2021/09/13 02:13:31;;;;;;;7.35;4.82;;;;;;;13.19;100.00;96752.13;5029253;28;20045;-66
2021/09/13 02:15:57;;;;;;;7.05;5.22;;;;;;;13.04;100.00;96759.50;5030347;28;20036;-66
2021/09/13 02:18:22;;;;;;;8.43;5.32;;;;;;;13.09;100.00;96755.59;5038428;28;20504;-67
2021/09/13 02:20:48;;;;;;;8.85;5.13;;;;;;;13.09;100.00;96753.66;5033245;28;20397;-66
2021/09/13 02:23:14;;;;;;;8.50;5.20;;;;;;;12.95;100.00;96753.53;5015967;28;20124;-67
2021/09/13 02:25:39;;;;;;;11.77;4.72;;;;;;;12.84;100.00;96753.44;5015283;28;20141;-66
2021/09/13 02:28:04;;;;;;;7.05;5.00;;;;;;;12.92;100.00;96748.78;5025639;28;20048;-66
2021/09/13 02:30:30;;;;;;;7.28;4.90;;;;;;;12.80;100.00;96758.91;5029240;28;20183;-67
2021/09/13 02:32:55;;;;;;;9.35;4.97;;;;;;;12.76;100.00;96758.06;5036069;28;20045;-66
2021/09/13 02:35:21;;;;;;;7.45;4.90;;;;;;;12.86;100.00;96750.31;5022468;28;21551;-67
2021/09/13 02:37:46;;;;;;;6.68;4.35;;;;;;;12.91;100.00;96748.00;5030052;28;20053;-67
2021/09/13 02:40:12;;;;;;;6.43;4.63;;;;;;;12.97;100.00;96749.22;5022692;28;20056;-67
2021/09/13 02:42:37;;;;;;;7.53;5.28;;;;;;;13.10;100.00;96743.44;5031832;28;20409;-66
2021/09/13 02:45:05;;;;;;;8.48;4.07;;;;;;;13.13;100.00;96746.19;5030166;28;20556;-67
2021/09/13 02:47:31;;;;;;;10.73;5.20;;;;;;;13.13;100.00;96742.66;5023529;28;20041;-67
2021/09/13 02:49:57;;;;;;;9.20;5.13;;;;;;;13.17;100.00;96743.47;5025594;28;20106;-67
2021/09/13 02:52:23;;;;;;;6.05;4.25;;;;;;;13.14;100.00;96746.97;5030369;28;20058;-68
2021/09/13 02:54:48;;;;;;;6.57;4.40;;;;;;;13.05;100.00;96744.56;5031361;28;20533;-67
2021/09/13 02:57:13;;;;;;;7.80;4.90;;;;;;;13.04;100.00;96748.50;5031715;28;20037;-67
2021/09/13 02:59:39;;;;;;;11.10;5.13;;;;;;;13.08;100.00;96738.31;5042747;28;20045;-67
2021/09/13 03:02:04;;;;;;;8.90;4.90;;;;;;;13.13;100.00;96745.41;5032043;28;20418;-67
2021/09/13 03:04:30;;;;;;;7.90;4.72;;;;;;;13.07;100.00;96752.44;5035699;28;20498;-65
2021/09/13 03:06:56;;;;;;;7.80;4.93;;;;;;;13.07;100.00;96741.44;5032558;28;20056;-66
2021/09/13 03:09:21;;;;;;;6.53;4.93;;;;;;;13.05;100.00;96741.03;5034512;28;20572;-66
2021/09/13 03:11:46;;;;;;;5.93;4.45;;;;;;;13.02;100.00;96739.84;5035130;28;20052;-66
2021/09/13 03:14:12;;;;;;;6.63;4.47;;;;;;;13.04;100.00;96736.72;5021883;28;20127;-67
2021/09/13 03:16:37;;;;;;;6.97;5.18;;;;;;;13.01;100.00;96739.03;5024291;28;20104;-67
2021/09/13 03:19:03;;;;;;;6.38;4.68;;;;;;;13.00;100.00;96740.22;5018072;28;20152;-66
2021/09/13 03:21:28;;;;;;;7.03;4.90;;;;;;;12.96;100.00;96733.09;5018929;28;20056;-66
2021/09/13 03:23:54;;;;;;;11.15;4.65;;;;;;;12.92;100.00;96737.78;5029310;28;20044;-68
2021/09/13 03:26:19;;;;;;;7.07;5.07;;;;;;;12.93;100.00;96733.88;5017390;28;20790;-67
2021/09/13 03:28:45;;;;;;;8.02;4.88;;;;;;;12.91;100.00;96733.47;5028965;28;20414;-67
2021/09/13 03:31:11;;;;;;;8.27;4.50;;;;;;;12.92;100.00;96740.53;5023650;28;20040;-66
2021/09/13 03:33:36;;;;;;;8.43;4.82;;;;;;;12.85;100.00;96738.53;5030612;28;20033;-66
2021/09/13 03:36:02;;;;;;;6.15;4.57;;;;;;;12.88;100.00;96731.50;5036008;28;20079;-67
2021/09/13 03:38:28;;;;;;;8.43;4.57;;;;;;;12.82;100.00;96739.31;5026272;28;20053;-67
2021/09/13 03:40:53;;;;;;;11.20;4.95;;;;;;;12.79;100.00;96737.31;5029121;28;20460;-67
2021/09/13 03:43:19;;;;;;;6.22;4.57;;;;;;;12.71;100.00;96741.16;5017707;28;20574;-67
2021/09/13 03:45:44;;;;;;;7.57;4.60;;;;;;;12.59;100.00;96742.25;5029687;28;20116;-67
2021/09/13 03:48:10;;;;;;;5.90;4.50;;;;;;;12.35;100.00;96738.88;5021229;28;20840;-65
2021/09/13 03:50:35;;;;;;;5.65;4.20;;;;;;;12.26;100.00;96734.84;5032935;28;20094;-67
2021/09/13 03:53:00;;;;;;;5.35;3.83;;;;;;;12.28;100.00;96729.75;5046833;28;20104;-66
2021/09/13 03:55:26;;;;;;;6.20;3.90;;;;;;;12.31;100.00;96734.50;5048266;28;20059;-68
2021/09/13 03:57:51;;;;;;;5.43;3.60;;;;;;;12.30;100.00;96735.66;5029504;28;20119;-66
2021/09/13 04:00:17;;;;;;;5.43;4.15;;;;;;;12.31;100.00;96737.25;5023112;28;20042;-68
2021/09/13 04:02:46;;;;;;;5.70;4.00;;;;;;;12.32;100.00;96734.13;5039285;28;20044;-68
2021/09/13 04:05:17;;;;;;;6.20;4.30;;;;;;;12.29;100.00;96739.59;5052708;28;20117;-68
2021/09/13 04:08:05;;;;;;;7.20;4.10;;;;;;;12.27;100.00;96739.97;5045020;28;20049;-67
2021/09/13 04:12:59;;;;;;;8.52;4.50;;;;;;;12.25;100.00;96742.28;5021538;28;20048;-68
2021/09/13 04:15:24;;;;;;;8.25;5.10;;;;;;;12.24;100.00;96732.47;5024658;28;20106;-67
2021/09/13 04:17:50;;;;;;;6.28;4.53;;;;;;;12.24;100.00;96740.69;5036136;28;20047;-68
2021/09/13 04:20:15;;;;;;;6.53;4.60;;;;;;;12.19;100.00;96730.88;5027997;28;20045;-68
2021/09/13 04:22:41;;;;;;;6.50;4.45;;;;;;;12.23;100.00;96731.69;5041726;28;20048;-67
2021/09/13 04:25:07;;;;;;;6.45;4.28;;;;;;;12.18;100.00;96731.25;5025997;28;20087;-67
2021/09/13 04:27:32;;;;;;;6.65;4.38;;;;;;;12.17;100.00;96743.38;5028138;28;20072;-66
2021/09/13 04:29:58;;;;;;;5.90;4.30;;;;;;;12.22;100.00;96740.28;5029758;28;20041;-66
2021/09/13 04:32:23;;;;;;;6.18;3.80;;;;;;;12.20;100.00;96734.41;5028455;28;20090;-66
2021/09/13 04:34:49;;;;;;;6.13;4.40;;;;;;;12.23;100.00;96736.41;5031934;28;20061;-66
2021/09/13 04:37:15;;;;;;;6.43;4.30;;;;;;;12.27;100.00;96736.44;5036610;28;20044;-66
2021/09/13 04:39:40;;;;;;;6.95;4.50;;;;;;;12.11;100.00;96737.44;5038211;28;20975;-66
2021/09/13 04:42:06;;;;;;;6.63;4.15;;;;;;;11.89;100.00;96744.63;5024539;28;20100;-66
2021/09/13 04:44:31;;;;;;;8.85;4.85;;;;;;;11.78;100.00;96741.75;5027201;28;20124;-66
2021/09/13 04:46:57;;;;;;;6.57;4.82;;;;;;;11.79;100.00;96742.53;5027867;28;20509;-67
2021/09/13 04:49:24;;;;;;;4.75;3.67;;;;;;;11.89;100.00;96749.31;5024633;28;20041;-67
2021/09/13 04:51:51;;;;;;;4.70;3.50;;;;;;;11.84;100.00;96736.72;5037564;28;20055;-65
2021/09/13 04:54:16;;;;;;;5.97;4.40;;;;;;;11.81;100.00;96743.75;5017228;28;20112;-66
2021/09/13 04:56:42;;;;;;;5.32;4.30;;;;;;;11.82;100.00;96744.53;5022066;28;20033;-67
2021/09/13 04:59:08;;;;;;;6.00;3.90;;;;;;;11.85;100.00;96741.81;5021581;28;20048;-68
2021/09/13 05:01:34;;;;;;;6.72;4.00;;;;;;;11.91;100.00;96744.28;5025386;28;20049;-67
2021/09/13 05:04:00;;;;;;;6.85;4.20;;;;;;;11.74;100.00;96740.09;5030204;28;20110;-67
2021/09/13 05:06:26;;;;;;;6.57;5.03;;;;;;;11.41;100.00;96739.69;5022962;28;20696;-67
2021/09/13 05:08:51;;;;;;;6.22;4.82;;;;;;;11.34;100.00;96750.56;5038715;28;20079;-68
2021/09/13 05:11:16;;;;;;;9.80;5.20;;;;;;;11.27;100.00;96743.03;5017455;28;20685;-67
2021/09/13 05:13:42;;;;;;;8.02;5.03;;;;;;;11.39;100.00;96752.19;5026747;28;20634;-68
2021/09/13 05:16:07;;;;;;;7.45;4.85;;;;;;;11.52;100.00;96756.28;5031714;28;20045;-67
2021/09/13 05:18:33;;;;;;;9.40;4.80;;;;;;;11.66;100.00;96753.72;5040623;28;20041;-67
2021/09/13 05:20:59;;;;;;;9.15;4.80;;;;;;;11.76;100.00;96762.50;5036678;28;20038;-66
2021/09/13 05:23:24;;;;;;;5.78;4.20;;;;;;;11.89;100.00;96760.28;5028769;28;20492;-67
2021/09/13 05:25:50;;;;;;;6.20;4.55;;;;;;;12.06;100.00;96762.47;5027038;28;20498;-67
2021/09/13 05:28:15;;;;;;;9.13;4.93;;;;;;;12.24;100.00;96758.00;5026034;28;20067;-67
2021/09/13 05:30:40;;;;;;;16.35;4.47;;;;;;;12.35;100.00;96751.81;5033457;28;20129;-66
2021/09/13 05:33:06;;;;;;;11.02;4.40;;;;;;;12.37;100.00;96755.75;5023162;28;20099;-67
2021/09/13 05:35:31;;;;;;;5.32;4.00;;;;;;;12.43;100.00;96747.97;5043946;28;20122;-67
2021/09/13 05:37:57;;;;;;;6.20;3.20;;;;;;;12.51;100.00;96760.59;5053590;28;20136;-69
2021/09/13 05:40:22;;;;;;;4.88;3.60;;;;;;;12.62;100.00;96760.69;5050856;28;20891;-67
2021/09/13 05:42:47;;;;;;;6.50;3.25;;;;;;;12.59;100.00;96759.50;5048438;28;20069;-67
2021/09/13 05:45:13;;;;;;;5.03;3.55;;;;;;;12.68;100.00;96766.66;5026726;28;20033;-66
2021/09/13 05:47:38;;;;;;;5.30;3.80;;;;;;;12.71;100.00;96765.88;5036553;28;20041;-67
2021/09/13 05:50:05;;;;;;;5.40;3.47;;;;;;;12.80;100.00;96774.59;5034175;28;20033;-66
2021/09/13 05:52:30;;;;;;;5.93;3.65;;;;;;;12.84;100.00;96772.69;5027396;28;20049;-67
2021/09/13 05:54:56;;;;;;;5.88;3.72;;;;;;;12.88;100.00;96768.00;5034205;28;20041;-66
2021/09/13 05:57:21;;;;;;;6.43;4.10;;;;;;;12.97;100.00;96768.47;5029176;28;20888;-66
2021/09/13 05:59:46;;;;;;;4.82;3.80;;;;;;;13.07;100.00;96769.75;5027880;28;20581;-67
2021/09/13 06:02:13;;;;;;;7.53;4.38;;;;;;;13.18;100.00;96769.78;5030954;28;20414;-67
2021/09/13 06:04:39;;;;;;;6.95;4.32;;;;;;;13.26;100.00;96765.16;5037003;28;20049;-68
2021/09/13 06:07:05;;;;;;;6.53;4.00;;;;;;;13.31;100.00;96771.09;5059248;28;20079;-68
2021/09/13 06:09:31;;;;;;;9.20;4.43;;;;;;;13.27;100.00;96770.28;5047346;28;20437;-67
2021/09/13 06:11:57;;;;;;;8.30;4.63;;;;;;;13.34;100.00;96764.03;5022825;28;20041;-66
2021/09/13 06:14:22;;;;;;;6.65;4.18;;;;;;;13.39;100.00;96775.47;5016547;28;20127;-67
2021/09/13 06:16:47;;;;;;;8.13;3.95;;;;;;;13.40;100.00;96770.78;5022680;28;20041;-68
2021/09/13 06:19:13;;;;;;;7.03;4.82;;;;;;;13.56;100.00;96770.47;5021631;28;20133;-68
2021/09/13 06:21:38;;;;;;;7.85;4.40;;;;;;;13.66;100.00;96766.19;5030781;28;20040;-67
2021/09/13 06:24:04;;;;;;;7.28;4.85;;;;;;;13.85;100.00;96773.38;5021161;28;20045;-67
2021/09/13 06:26:29;;;;;;;7.88;4.82;;;;;;;13.94;100.00;96771.84;5029916;28;20041;-67
2021/09/13 06:28:55;;;;;;;8.20;4.18;;;;;;;14.01;100.00;96781.28;5026592;28;20063;-67
2021/09/13 06:31:21;;;;;;;7.43;4.93;;;;;;;13.96;100.00;96779.72;5031698;28;20102;-67
2021/09/13 06:33:46;;;;;;;7.40;4.32;;;;;;;14.12;100.00;96782.94;5031851;28;20057;-67
2021/09/13 06:36:12;;;;;;;9.20;4.32;;;;;;;14.22;99.16;96780.59;5022918;28;20091;-68
2021/09/13 06:38:37;;;;;;;5.05;3.83;;;;;;;14.39;99.29;96781.84;5030944;28;20084;-68
2021/09/13 06:41:03;;;;;;;7.78;4.75;;;;;;;14.36;99.51;96785.38;5031859;28;20124;-66
2021/09/13 06:43:29;;;;;;;7.85;4.47;;;;;;;14.13;100.00;96784.53;5024367;28;20103;-67
2021/09/13 06:48:34;;;;;;;12.30;6.00;;;;;;;14.27;100.00;96789.25;5026688;28;20152;-64
2021/09/13 06:50:59;;;;;;;6.47;4.65;;;;;;;14.30;100.00;96785.75;5019682;28;20132;-65
2021/09/13 06:53:24;;;;;;;7.07;4.68;;;;;;;14.51;100.00;96786.97;5018685;28;20041;-66
2021/09/13 06:55:50;;;;;;;6.95;5.03;;;;;;;14.86;99.01;96786.28;5021794;28;20042;-66
2021/09/13 06:58:15;;;;;;;7.53;5.07;;;;;;;14.85;98.25;96794.94;5021773;28;20384;-66
2021/09/13 07:00:40;;;;;;;9.57;5.28;;;;;;;14.92;99.00;96789.41;5023945;28;20049;-65
2021/09/13 07:03:07;;;;;;;11.38;6.05;;;;;;;15.16;97.93;96798.09;4999050;28;20526;-63
2021/09/13 07:05:32;;;;;;;10.38;5.63;;;;;;;15.27;97.58;96796.91;5023180;28;20538;-64
2021/09/13 07:07:57;;;;;;;9.15;5.20;;;;;;;15.46;96.60;96803.97;5023904;28;20145;-66
2021/09/13 07:10:23;;;;;;;8.77;4.80;;;;;;;15.44;96.86;96803.59;5018000;28;20124;-66
2021/09/13 07:12:49;;;;;;;11.38;4.90;;;;;;;15.65;96.11;96802.78;5020943;28;20035;-64
2021/09/13 07:15:17;;;;;;;8.00;4.80;;;;;;;15.78;95.68;96805.16;5019131;28;20040;-67
2021/09/13 07:17:43;;;;;;;7.70;4.40;;;;;;;15.82;96.43;96805.94;5023618;28;20069;-64
2021/09/13 07:20:09;;;;;;;7.32;4.55;;;;;;;15.95;95.92;96803.53;5018564;28;20069;-67
2021/09/13 07:22:35;;;;;;;7.85;4.50;;;;;;;15.95;96.30;96811.81;5022107;28;20508;-65
2021/09/13 07:25:01;;;;;;;6.93;5.00;;;;;;;15.64;99.27;96803.97;5022744;28;20049;-65
2021/09/13 07:27:27;;;;;;;9.07;5.35;;;;;;;15.53;100.00;96808.72;5016981;28;20120;-64
2021/09/13 07:29:53;;;;;;;7.57;5.00;;;;;;;15.68;100.00;96812.22;5041743;28;20042;-66
2021/09/13 07:32:19;;;;;;;6.38;4.80;;;;;;;15.89;100.00;96819.72;5037981;28;20045;-66
2021/09/13 07:34:44;;;;;;;9.65;5.00;;;;;;;16.30;98.88;96823.94;5043057;28;20141;-64
2021/09/13 07:37:10;;;;;;;7.82;4.88;;;;;;;16.69;96.31;96818.22;5023873;28;20080;-64
2021/09/13 07:39:35;;;;;;;7.95;4.95;;;;;;;16.70;95.28;96814.22;5035124;28;20045;-65
2021/09/13 07:42:00;;;;;;;6.38;4.38;;;;;;;16.78;95.16;96821.31;5026347;28;20041;-66
2021/09/13 07:44:26;;;;;;;7.93;4.20;;;;;;;17.09;94.32;96820.75;5035981;28;20110;-65
2021/09/13 07:46:52;;;;;;;8.63;5.20;;;;;;;17.16;93.59;96826.19;5038749;28;20041;-66
2021/09/13 07:49:19;;;;;;;7.38;4.72;;;;;;;17.13;93.97;96829.81;5030583;28;20406;-65
2021/09/13 07:51:45;;;;;;;5.95;4.07;;;;;;;17.24;94.51;96830.50;5022243;28;20045;-65
2021/09/13 07:54:11;;;;;;;8.55;4.35;;;;;;;17.53;93.63;96830.25;5016001;28;20044;-63
2021/09/13 07:56:36;;;;;;;7.65;4.50;;;;;;;17.66;91.49;96836.06;5022315;28;20044;-64
2021/09/13 07:59:03;;;;;;;9.57;5.00;;;;;;;17.88;90.69;96837.47;5029995;28;20051;-63
2021/09/13 08:01:34;;;;;;;6.75;4.38;;;;;;;17.95;89.55;96837.41;5029199;28;20058;-64
2021/09/13 08:04:00;;;;;;;7.55;5.55;;;;;;;17.56;92.40;96843.28;5047962;28;20135;-63
2021/09/13 08:06:25;;;;;;;7.90;5.20;;;;;;;17.81;92.04;96848.59;5026477;28;20677;-65
2021/09/13 08:08:51;;;;;;;8.88;5.80;;;;;;;17.95;90.18;96851.25;5032578;28;20115;-65
2021/09/13 08:11:17;;;;;;;10.23;6.35;;;;;;;18.18;88.91;96851.81;5015317;28;20124;-66
2021/09/13 08:13:43;;;;;;;10.13;6.38;;;;;;;18.20;88.71;96850.19;5044734;28;20063;-66
2021/09/13 08:16:10;;;;;;;8.98;6.90;;;;;;;18.28;88.45;96850.91;5054646;28;20090;-65
2021/09/13 08:18:39;;;;;;;13.00;8.65;;;;;;;18.06;89.07;96858.66;5037016;28;20041;-66
2021/09/13 08:21:05;;;;;;;11.50;7.55;;;;;;;18.17;89.32;96853.78;5043303;28;20036;-62
2021/09/13 08:23:34;;;;;;;9.80;6.95;;;;;;;18.00;91.30;96857.53;5040016;28;20041;-66
2021/09/13 08:26:05;;;;;;;11.05;6.72;;;;;;;18.27;89.85;96857.63;5041814;28;20401;-65
2021/09/13 08:28:31;;;;;;;10.32;7.22;;;;;;;18.53;87.23;96859.69;5031525;28;20135;-65
2021/09/13 08:30:56;;;;;;;10.40;6.90;;;;;;;18.79;87.08;96867.69;5023319;28;20178;-66
2021/09/13 08:33:22;;;;;;;15.18;9.32;;;;;;;18.13;89.96;96878.78;5019556;28;20262;-66
2021/09/13 08:35:49;;;;;;;13.82;9.65;;;;;;;17.65;92.70;96871.28;5020128;28;20048;-65
2021/09/13 08:38:15;;;;;;;18.23;12.13;;;;;;;17.04;98.16;96877.28;5012958;28;20041;-64
2021/09/13 08:40:40;;;;;;;17.95;11.13;;;;;;;17.49;96.51;96874.59;5020391;28;20521;-65
2021/09/13 08:43:06;;;;;;;17.40;11.82;;;;;;;17.65;93.93;96873.28;5015137;28;20050;-64
2021/09/13 08:53:24;;;;;;;17.73;11.20;;;;;;;17.66;94.16;96880.38;5016370;28;20512;-64
2021/09/13 08:55:52;;;;;;;18.13;9.98;;;;;;;18.07;92.38;96876.88;5025273;28;20066;-65
2021/09/13 08:58:24;;;;;;;16.50;10.57;;;;;;;18.49;89.81;96878.38;5010370;28;20056;-66
2021/09/13 09:00:50;;;;;;;15.90;10.82;;;;;;;18.39;89.91;96873.72;5019406;28;20038;-66
2021/09/13 09:03:16;;;;;;;15.45;11.50;;;;;;;18.44;89.05;96876.06;5011320;28;20037;-63
2021/09/13 09:05:44;;;;;;;16.23;10.05;;;;;;;18.72;87.29;96880.44;5019746;28;20560;-63
2021/09/13 09:08:24;;;;;;;15.77;9.47;;;;;;;18.74;87.74;96874.47;5017874;28;20072;-64
2021/09/13 09:10:59;;;;;;;18.27;11.23;;;;;;;18.54;87.49;96882.66;5020219;28;20288;-64
2021/09/13 09:13:27;;;;;;;18.63;12.15;;;;;;;17.67;93.39;96882.75;5016889;28;20041;-63
2021/09/13 09:16:00;;;;;;;20.25;12.18;;;;;;;17.41;94.80;96881.38;5027065;28;20049;-65
2021/09/13 09:18:48;;;;;;;19.67;11.50;;;;;;;17.94;92.81;96882.91;5013920;28;20049;-64
2021/09/13 09:21:31;;;;;;;18.02;11.00;;;;;;;18.11;90.66;96881.19;5012199;28;20053;-65
2021/09/13 09:24:04;;;;;;;20.52;12.60;;;;;;;17.32;95.34;96879.09;5018734;28;21303;-65
2021/09/13 09:26:31;;;;;;;17.40;11.07;;;;;;;18.19;91.56;96881.09;5021596;28;20125;-65
2021/09/13 09:28:57;;;;;;;19.80;11.27;;;;;;;18.79;87.25;96882.34;5017596;28;20106;-64
2021/09/13 09:31:38;;;;;;;45.45;13.88;;;;;;;19.09;85.70;96875.25;5016034;28;20049;-64
2021/09/13 09:34:25;;;;;;;39.03;12.43;;;;;;;19.49;82.99;96878.97;5008092;28;20054;-62
2021/09/13 09:37:00;;;;;;;16.20;9.70;;;;;;;19.73;81.74;96880.97;5022015;28;20041;-64
2021/09/13 09:39:32;;;;;;;18.27;11.15;;;;;;;19.91;81.22;96877.91;5010128;28;20498;-65
2021/09/13 09:41:58;;;;;;;17.13;10.80;;;;;;;19.56;82.80;96880.06;5027131;28;20556;-66
2021/09/13 09:44:25;;;;;;;18.60;11.57;;;;;;;18.68;88.20;96873.38;5018870;28;20079;-65
2021/09/13 09:46:53;;;;;;;16.27;10.95;;;;;;;19.56;84.14;96872.53;5039927;28;20133;-65
2021/09/13 09:49:21;;;;;;;14.88;9.75;;;;;;;20.22;80.29;96871.00;5031929;28;20049;-64
2021/09/13 09:51:50;;;;;;;17.05;9.80;;;;;;;20.56;78.03;96880.25;5020267;28;20045;-65
2021/09/13 09:54:17;;;;;;;17.20;10.68;;;;;;;20.68;76.80;96873.28;5013068;28;20072;-63
2021/09/13 09:56:47;;;;;;;18.23;10.35;;;;;;;20.44;76.50;96867.78;5019856;28;20791;-65
2021/09/13 09:59:14;;;;;;;17.15;11.48;;;;;;;19.56;82.02;96866.97;5022528;28;20052;-65
2021/09/13 10:01:48;;;;;;;15.70;10.82;;;;;;;19.59;82.46;96873.66;5036368;28;20114;-64
2021/09/13 10:04:28;;;;;;;15.40;9.60;;;;;;;20.61;78.06;96863.88;5037644;28;20102;-64
2021/09/13 10:06:56;;;;;;;14.48;10.27;;;;;;;19.53;81.32;96855.91;5035671;28;20041;-65
2021/09/13 10:09:24;;;;;;;16.88;10.95;;;;;;;19.26;84.12;96857.50;5031714;28;20552;-65
2021/09/13 10:11:52;;;;;;;16.98;11.15;;;;;;;19.53;84.01;96864.25;5029087;28;20216;-65
2021/09/13 10:14:21;;;;;;;15.80;10.25;;;;;;;20.77;79.71;96863.13;5041434;28;20066;-65
2021/09/13 10:16:47;;;;;;;14.82;10.70;;;;;;;21.63;71.93;96849.25;5053994;28;20048;-66
2021/09/13 10:19:13;;;;;;;16.23;10.02;;;;;;;21.90;71.97;96848.19;5021085;28;20529;-66
2021/09/13 10:21:39;;;;;;;16.13;10.38;;;;;;;22.45;69.72;96851.09;5031504;28;20045;-64
2021/09/13 10:24:11;;;;;;;12.73;8.65;;;;;;;22.13;70.75;96845.16;5018494;28;20124;-64
2021/09/13 10:26:40;;;;;;;16.42;8.98;;;;;;;24.04;63.23;96842.16;5029371;28;20047;-66
2021/09/13 10:29:05;;;;;;;13.90;10.05;;;;;;;23.04;66.61;96835.78;5030350;28;20037;-65
2021/09/13 10:31:43;;;;;;;18.10;10.05;;;;;;;23.25;65.33;96839.16;5042059;28;20052;-64
2021/09/13 10:34:25;;;;;;;16.88;8.88;;;;;;;23.48;64.17;96846.41;5036532;28;20076;-65
2021/09/13 10:37:14;;;;;;;14.35;8.82;;;;;;;24.66;60.37;96835.16;5041163;28;20098;-63
2021/09/13 10:40:06;;;;;;;13.70;8.70;;;;;;;25.28;57.66;96825.97;5034530;28;20498;-65
2021/09/13 10:43:18;;;;;;;11.95;8.45;;;;;;;24.19;61.47;96828.44;5031960;28;20053;-66
2021/09/13 10:45:43;;;;;;;13.43;9.18;;;;;;;21.82;71.37;96833.63;4978183;28;20087;-66
2021/09/13 10:48:20;;;;;;;12.45;9.20;;;;;;;22.37;71.17;96821.84;5022701;28;20387;-65
2021/09/13 10:50:47;;;;;;;15.25;9.98;;;;;;;21.79;71.95;96823.38;5033758;28;20080;-65
2021/09/13 10:53:18;;;;;;;13.13;9.55;;;;;;;22.81;68.42;96820.09;5044134;28;20060;-65
2021/09/13 10:55:45;;;;;;;13.38;9.18;;;;;;;22.73;69.36;96821.56;5053776;28;20224;-65
2021/09/13 10:58:16;;;;;;;13.32;8.90;;;;;;;22.99;68.63;96821.56;5033466;28;20049;-64
2021/09/13 11:00:44;;;;;;;11.15;7.90;;;;;;;24.58;62.37;96817.84;5043761;28;20041;-63
2021/09/13 11:03:21;;;;;;;11.18;7.55;;;;;;;24.65;61.37;96819.59;5037193;28;20037;-64
2021/09/13 11:06:00;;;;;;;11.55;7.93;;;;;;;25.25;58.99;96808.06;5033961;28;20067;-63
2021/09/13 11:08:26;;;;;;;13.77;8.93;;;;;;;24.87;61.84;96805.56;5032309;28;20130;-64
2021/09/13 11:10:51;;;;;;;13.63;8.57;;;;;;;24.43;63.00;96793.16;5028589;28;20072;-64
2021/09/13 11:13:17;;;;;;;13.00;8.48;;;;;;;24.25;63.42;96795.81;5029370;28;20124;-65
2021/09/13 11:15:49;;;;;;;16.90;9.02;;;;;;;24.26;62.98;96800.19;5034623;28;20071;-64
2021/09/13 11:18:34;;;;;;;11.25;8.45;;;;;;;24.46;62.86;96790.69;5036623;28;20060;-65
2021/09/13 11:21:26;;;;;;;12.25;8.32;;;;;;;24.68;62.75;96791.44;5036551;28;20040;-65
2021/09/13 11:23:57;;;;;;;11.07;7.93;;;;;;;25.71;59.78;96782.94;5032583;28;20473;-65
2021/09/13 11:26:31;;;;;;;12.95;7.47;;;;;;;25.42;60.21;96788.94;5038301;28;20568;-65
2021/09/13 11:29:01;;;;;;;11.68;7.30;;;;;;;25.37;60.26;96786.75;5043601;28;20044;-65
2021/09/13 11:31:29;;;;;;;12.65;8.32;;;;;;;25.70;58.58;96772.19;5027276;28;20048;-66
2021/09/13 11:33:56;;;;;;;11.57;6.93;;;;;;;26.38;57.32;96780.44;5039799;28;20033;-66
2021/09/13 11:36:26;;;;;;;10.57;7.35;;;;;;;26.80;54.80;96784.56;5027710;28;20310;-66
2021/09/13 11:39:01;;;;;;;11.43;6.97;;;;;;;26.80;54.55;96776.13;5029586;28;20374;-66